createdAt,value
2017-09-26T00:00:04.161Z,15.75
2017-09-26T00:01:03.813Z,15.64
2017-09-26T00:02:03.811Z,15.65
2017-09-26T00:03:04.071Z,15.61
2017-09-26T00:04:03.750Z,15.62
2017-09-26T00:05:04.040Z,15.61
2017-09-26T00:06:04.030Z,15.61
2017-09-26T00:07:03.691Z,15.62
2017-09-26T00:08:03.372Z,15.52
2017-09-26T00:09:03.970Z,15.49
2017-09-26T00:10:03.680Z,15.52
2017-09-26T00:11:03.943Z,15.52
2017-09-26T00:12:03.927Z,15.54
2017-09-26T00:13:03.580Z,15.57
2017-09-26T00:14:03.561Z,15.67
2017-09-26T00:15:03.549Z,15.68
2017-09-26T00:16:03.529Z,15.58
2017-09-26T00:17:03.521Z,15.57
2017-09-26T00:18:03.532Z,15.52
2017-09-26T00:19:03.480Z,15.62
2017-09-26T00:20:03.771Z,15.61
2017-09-26T00:21:03.794Z,15.6
2017-09-26T00:22:03.770Z,15.58
2017-09-26T00:23:03.751Z,15.64
2017-09-26T00:24:03.400Z,15.54
2017-09-26T00:25:03.390Z,15.58
2017-09-26T00:26:03.711Z,15.53
2017-09-26T00:27:03.684Z,15.53
2017-09-26T00:28:03.642Z,15.61
2017-09-26T00:29:03.632Z,15.61
2017-09-26T00:30:03.603Z,15.52
2017-09-26T00:31:03.290Z,15.49
2017-09-26T00:32:03.253Z,15.46
2017-09-26T00:33:03.231Z,15.54
2017-09-26T00:34:03.522Z,15.57
2017-09-26T00:35:03.212Z,15.5
2017-09-26T00:36:03.492Z,15.64
2017-09-26T00:37:03.170Z,15.6
2017-09-26T00:38:03.461Z,15.62
2017-09-26T00:39:03.180Z,15.58
2017-09-26T00:40:03.432Z,15.61
2017-09-26T00:41:03.138Z,15.52
2017-09-26T00:42:03.381Z,15.52
2017-09-26T00:43:03.379Z,15.64
2017-09-26T00:44:03.060Z,15.54
2017-09-26T00:45:03.329Z,15.64
2017-09-26T00:46:02.690Z,15.58
2017-09-26T00:47:02.760Z,15.57
2017-09-26T00:48:02.958Z,15.68
2017-09-26T00:49:02.951Z,15.6
2017-09-26T00:50:02.920Z,15.72
2017-09-26T00:51:03.229Z,15.61
2017-09-26T00:52:02.890Z,15.68
2017-09-26T00:53:02.886Z,15.65
2017-09-26T00:54:03.160Z,15.69
2017-09-26T00:55:02.530Z,15.72
2017-09-26T00:56:03.131Z,15.77
2017-09-26T00:57:03.140Z,15.75
2017-09-26T00:58:03.123Z,15.75
2017-09-26T00:59:02.782Z,15.83
2017-09-26T01:00:02.748Z,15.82
2017-09-26T01:01:02.432Z,15.8
2017-09-26T01:02:03.036Z,15.67
2017-09-26T01:03:02.706Z,15.65
2017-09-26T01:04:03.100Z,15.76
2017-09-26T01:05:02.419Z,15.75
2017-09-26T01:06:03.042Z,15.71
2017-09-26T01:07:02.321Z,15.71
2017-09-26T01:08:02.614Z,15.69
2017-09-26T01:09:02.983Z,15.6
2017-09-26T01:10:02.576Z,15.67
2017-09-26T01:11:02.943Z,15.65
2017-09-26T01:12:02.872Z,15.71
2017-09-26T01:13:02.573Z,15.64
2017-09-26T01:14:02.856Z,15.64
2017-09-26T01:15:02.492Z,15.69
2017-09-26T01:16:02.470Z,15.72
2017-09-26T01:17:02.808Z,15.71
2017-09-26T01:18:02.740Z,15.77
2017-09-26T01:19:02.770Z,15.75
2017-09-26T01:20:02.400Z,15.75
2017-09-26T01:21:02.429Z,15.72
2017-09-26T01:22:02.361Z,15.76
2017-09-26T01:23:02.411Z,15.68
2017-09-26T01:24:02.326Z,15.69
2017-09-26T01:25:02.302Z,15.67
2017-09-26T01:26:02.703Z,15.72
2017-09-26T01:27:02.275Z,15.76
2017-09-26T01:28:01.941Z,15.68
2017-09-26T01:29:02.556Z,15.6
2017-09-26T01:30:02.214Z,15.61
2017-09-26T01:31:02.513Z,15.69
2017-09-26T01:32:02.542Z,15.64
2017-09-26T01:33:01.860Z,15.61
2017-09-26T01:34:02.531Z,15.53
2017-09-26T01:35:02.522Z,15.57
2017-09-26T01:36:02.472Z,15.58
2017-09-26T01:37:02.448Z,15.64
2017-09-26T01:38:02.381Z,15.64
2017-09-26T01:39:02.473Z,15.61
2017-09-26T01:40:02.409Z,15.68
2017-09-26T01:41:02.343Z,15.65
2017-09-26T01:42:02.343Z,15.62
2017-09-26T01:43:02.323Z,15.64
2017-09-26T01:44:02.302Z,15.68
2017-09-26T01:45:01.953Z,15.61
2017-09-26T01:46:02.257Z,15.69
2017-09-26T01:47:01.920Z,15.61
2017-09-26T01:48:02.220Z,15.68
2017-09-26T01:49:01.880Z,15.62
2017-09-26T01:50:01.939Z,15.62
2017-09-26T01:51:02.210Z,15.58
2017-09-26T01:52:01.837Z,15.62
2017-09-26T01:53:01.800Z,15.64
2017-09-26T01:54:01.787Z,15.64
2017-09-26T01:55:01.791Z,15.69
2017-09-26T01:56:02.069Z,15.69
2017-09-26T01:57:01.752Z,15.61
2017-09-26T01:58:02.033Z,15.65
2017-09-26T01:59:01.711Z,15.58
2017-09-26T02:00:01.684Z,15.62
2017-09-26T02:01:01.972Z,15.62
2017-09-26T02:02:01.957Z,15.54
2017-09-26T02:03:01.987Z,15.52
2017-09-26T02:04:01.926Z,15.6
2017-09-26T02:05:01.920Z,15.54
2017-09-26T02:06:01.582Z,15.53
2017-09-26T02:07:01.869Z,15.52
2017-09-26T02:08:02.093Z,15.53
2017-09-26T02:09:01.536Z,15.53
2017-09-26T02:10:01.821Z,15.5
2017-09-26T02:11:01.487Z,15.6
2017-09-26T02:12:01.790Z,15.54
2017-09-26T02:13:01.458Z,15.46
2017-09-26T02:14:01.445Z,15.54
2017-09-26T02:15:01.740Z,15.58
2017-09-26T02:16:01.081Z,15.58
2017-09-26T02:17:01.390Z,15.54
2017-09-26T02:18:01.363Z,15.58
2017-09-26T02:19:01.351Z,15.64
2017-09-26T02:20:01.329Z,15.67
2017-09-26T02:21:01.620Z,15.62
2017-09-26T02:22:01.300Z,15.64
2017-09-26T02:23:01.586Z,15.6
2017-09-26T02:24:01.581Z,15.62
2017-09-26T02:25:01.553Z,15.58
2017-09-26T02:26:01.525Z,15.57
2017-09-26T02:27:01.209Z,15.6
2017-09-26T02:28:01.201Z,15.64
2017-09-26T02:29:01.233Z,15.57
2017-09-26T02:30:01.162Z,15.52
2017-09-26T02:31:01.460Z,15.58
2017-09-26T02:32:01.119Z,15.64
2017-09-26T02:33:01.410Z,15.64
2017-09-26T02:34:01.097Z,15.6
2017-09-26T02:35:01.401Z,15.64
2017-09-26T02:36:01.401Z,15.68
2017-09-26T02:37:01.029Z,15.62
2017-09-26T02:38:01.317Z,15.64
2017-09-26T02:39:01.302Z,15.58
2017-09-26T02:40:01.288Z,15.49
2017-09-26T02:41:01.340Z,15.52
2017-09-26T02:42:01.263Z,15.57
2017-09-26T02:43:01.242Z,15.6
2017-09-26T02:44:00.921Z,15.54
2017-09-26T02:45:01.201Z,15.53
2017-09-26T02:46:00.866Z,15.61
2017-09-26T02:47:01.165Z,15.58
2017-09-26T02:48:00.837Z,15.65
2017-09-26T02:49:01.122Z,15.54
2017-09-26T02:50:00.799Z,15.57
2017-09-26T02:51:01.092Z,15.54
2017-09-26T02:52:01.092Z,15.64
2017-09-26T02:53:01.070Z,15.49
2017-09-26T02:54:01.052Z,15.62
2017-09-26T02:55:00.713Z,15.5
2017-09-26T02:56:01.020Z,15.61
2017-09-26T02:57:00.362Z,15.57
2017-09-26T02:58:00.972Z,15.49
2017-09-26T02:59:00.949Z,15.53
2017-09-26T03:00:01.020Z,15.52
2017-09-26T03:01:00.627Z,15.58
2017-09-26T03:02:00.596Z,15.57
2017-09-26T03:03:00.256Z,15.52
2017-09-26T03:04:00.871Z,15.57
2017-09-26T03:05:00.218Z,15.49
2017-09-26T03:06:00.823Z,15.47
2017-09-26T03:07:00.846Z,15.54
2017-09-26T03:08:00.298Z,15.47
2017-09-26T03:09:00.765Z,15.5
2017-09-26T03:10:00.749Z,15.5
2017-09-26T03:11:00.421Z,15.54
2017-09-26T03:12:00.723Z,15.52
2017-09-26T03:13:00.690Z,15.53
2017-09-26T03:14:00.692Z,15.52
2017-09-26T03:15:00.041Z,15.57
2017-09-26T03:16:00.327Z,15.5
2017-09-26T03:17:00.309Z,15.53
2017-09-26T03:18:00.360Z,15.6
2017-09-26T03:19:00.619Z,15.52
2017-09-26T03:20:00.264Z,15.57
2017-09-26T03:20:59.937Z,15.52
2017-09-26T03:22:00.553Z,15.49
2017-09-26T03:23:00.521Z,15.46
2017-09-26T03:24:00.520Z,15.61
2017-09-26T03:25:00.167Z,15.61
2017-09-26T03:26:00.158Z,15.44
2017-09-26T03:27:00.156Z,15.57
2017-09-26T03:28:00.448Z,15.46
2017-09-26T03:29:00.110Z,15.47
2017-09-26T03:29:59.779Z,15.52
2017-09-26T03:31:00.067Z,15.52
2017-09-26T03:32:00.080Z,15.42
2017-09-26T03:33:00.343Z,15.54
2017-09-26T03:34:00.027Z,15.61
2017-09-26T03:35:00.009Z,15.57
2017-09-26T03:36:00.310Z,15.46
2017-09-26T03:37:00.270Z,15.5
2017-09-26T03:38:00.241Z,15.44
2017-09-26T03:38:59.942Z,15.47
2017-09-26T03:40:00.212Z,15.46
2017-09-26T03:40:59.890Z,15.53
2017-09-26T03:42:00.190Z,15.52
2017-09-26T03:43:00.166Z,15.5
2017-09-26T03:44:00.146Z,15.53
2017-09-26T03:45:00.135Z,15.46
2017-09-26T03:46:00.109Z,15.44
2017-09-26T03:47:00.095Z,15.44
2017-09-26T03:48:00.079Z,15.46
2017-09-26T03:48:59.748Z,15.42
2017-09-26T03:50:00.040Z,15.35
2017-09-26T03:51:00.079Z,15.35
2017-09-26T03:51:59.693Z,15.32
2017-09-26T03:52:59.985Z,15.24
2017-09-26T03:54:00.003Z,15.31
2017-09-26T03:54:59.957Z,15.28
2017-09-26T03:55:59.950Z,15.34
2017-09-26T03:56:59.981Z,15.34
2017-09-26T03:57:59.911Z,15.28
2017-09-26T03:58:59.575Z,15.27
2017-09-26T03:59:59.879Z,15.27
2017-09-26T04:00:59.840Z,15.27
2017-09-26T04:01:59.821Z,15.34
2017-09-26T04:02:59.852Z,15.27
2017-09-26T04:03:59.804Z,15.31
2017-09-26T04:04:59.469Z,15.32
2017-09-26T04:05:59.525Z,15.32
2017-09-26T04:06:59.729Z,15.34
2017-09-26T04:07:59.709Z,15.29
2017-09-26T04:08:59.400Z,15.29
2017-09-26T04:09:59.071Z,15.31
2017-09-26T04:10:59.679Z,15.27
2017-09-26T04:11:59.649Z,15.29
2017-09-26T04:12:59.629Z,15.24
2017-09-26T04:13:59.309Z,15.31
2017-09-26T04:14:59.591Z,15.28
2017-09-26T04:15:59.268Z,15.27
2017-09-26T04:16:59.632Z,15.25
2017-09-26T04:17:58.969Z,15.27
2017-09-26T04:18:59.520Z,15.24
2017-09-26T04:19:59.552Z,15.27
2017-09-26T04:20:59.479Z,15.31
2017-09-26T04:21:59.473Z,15.24
2017-09-26T04:22:59.506Z,15.27
2017-09-26T04:23:59.198Z,15.28
2017-09-26T04:24:59.428Z,15.28
2017-09-26T04:25:59.141Z,15.32
2017-09-26T04:26:59.069Z,15.31
2017-09-26T04:27:59.060Z,15.28
2017-09-26T04:28:59.389Z,15.27
2017-09-26T04:29:59.329Z,15.31
2017-09-26T04:30:58.900Z,15.27
2017-09-26T04:31:58.969Z,15.28
2017-09-26T04:32:58.651Z,15.29
2017-09-26T04:33:58.629Z,15.32
2017-09-26T04:34:58.927Z,15.35
2017-09-26T04:35:59.219Z,15.24
2017-09-26T04:36:59.232Z,15.31
2017-09-26T04:37:59.199Z,15.34
2017-09-26T04:38:59.254Z,15.32
2017-09-26T04:39:59.161Z,15.32
2017-09-26T04:40:58.851Z,15.25
2017-09-26T04:41:58.807Z,15.32
2017-09-26T04:42:58.846Z,15.16
2017-09-26T04:43:58.778Z,15.2
2017-09-26T04:44:59.060Z,15.13
2017-09-26T04:45:59.038Z,15.13
2017-09-26T04:46:58.713Z,15.14
2017-09-26T04:47:58.689Z,15.16
2017-09-26T04:48:58.664Z,15.13
2017-09-26T04:49:58.972Z,15.16
2017-09-26T04:50:58.947Z,15.12
2017-09-26T04:51:58.629Z,15.09
2017-09-26T04:52:58.909Z,15.21
2017-09-26T04:53:58.281Z,15.16
2017-09-26T04:54:58.869Z,15.06
2017-09-26T04:55:58.860Z,15
2017-09-26T04:56:58.839Z,14.92
2017-09-26T04:57:58.849Z,14.96
2017-09-26T04:58:58.808Z,15.1
2017-09-26T04:59:58.798Z,15.14
2017-09-26T05:00:58.152Z,15.09
2017-09-26T05:01:58.443Z,15.12
2017-09-26T05:02:58.729Z,15.13
2017-09-26T05:03:58.711Z,15.12
2017-09-26T05:04:58.456Z,15.17
2017-09-26T05:05:58.691Z,15.13
2017-09-26T05:06:58.658Z,15.17
2017-09-26T05:07:58.645Z,15.09
2017-09-26T05:08:58.308Z,15.09
2017-09-26T05:09:58.292Z,15.17
2017-09-26T05:10:58.285Z,15.12
2017-09-26T05:11:58.568Z,15.12
2017-09-26T05:12:57.925Z,15.12
2017-09-26T05:13:58.549Z,15.09
2017-09-26T05:14:58.511Z,15.09
2017-09-26T05:15:58.498Z,15.1
2017-09-26T05:16:58.485Z,15.17
2017-09-26T05:17:58.348Z,15.13
2017-09-26T05:18:58.130Z,15.13
2017-09-26T05:19:58.115Z,15.2
2017-09-26T05:20:57.778Z,15.16
2017-09-26T05:21:58.419Z,15.12
2017-09-26T05:22:58.370Z,15.24
2017-09-26T05:23:58.340Z,15.21
2017-09-26T05:24:57.710Z,15.27
2017-09-26T05:25:58.010Z,15.16
2017-09-26T05:26:58.310Z,15.21
2017-09-26T05:27:58.290Z,15.16
2017-09-26T05:28:57.948Z,15.14
2017-09-26T05:29:57.920Z,15.14
2017-09-26T05:30:57.898Z,15.17
2017-09-26T05:31:57.904Z,15.16
2017-09-26T05:32:58.199Z,15.2
2017-09-26T05:33:57.857Z,15.12
2017-09-26T05:34:58.141Z,15.12
2017-09-26T05:35:58.127Z,15.14
2017-09-26T05:36:57.808Z,15.09
2017-09-26T05:37:57.799Z,15.13
2017-09-26T05:38:58.080Z,15.13
2017-09-26T05:39:58.059Z,15.13
2017-09-26T05:40:57.732Z,15.06
2017-09-26T05:41:57.407Z,15.09
2017-09-26T05:42:57.689Z,15.06
2017-09-26T05:43:57.374Z,15.07
2017-09-26T05:44:57.670Z,15.09
2017-09-26T05:45:57.639Z,15.07
2017-09-26T05:46:57.618Z,15.09
2017-09-26T05:47:57.919Z,15.12
2017-09-26T05:48:57.586Z,15.07
2017-09-26T05:49:57.559Z,15.03
2017-09-26T05:50:57.868Z,15.03
2017-09-26T05:51:57.530Z,15.09
2017-09-26T05:52:57.530Z,15
2017-09-26T05:53:57.800Z,15.03
2017-09-26T05:54:57.798Z,14.92
2017-09-26T05:55:57.779Z,15.1
2017-09-26T05:56:57.777Z,15.09
2017-09-26T05:57:57.749Z,15.17
2017-09-26T05:58:57.728Z,15.13
2017-09-26T05:59:57.709Z,15.21
2017-09-26T06:00:57.382Z,15.12
2017-09-26T06:01:57.671Z,15.21
2017-09-26T06:02:57.663Z,15.16
2017-09-26T06:03:57.363Z,15.14
2017-09-26T06:04:57.618Z,15.1
2017-09-26T06:05:57.597Z,15.2
2017-09-26T06:06:57.596Z,15.12
2017-09-26T06:07:57.568Z,15.17
2017-09-26T06:08:57.533Z,15.2
2017-09-26T06:09:57.608Z,15.24
2017-09-26T06:10:57.510Z,15.17
2017-09-26T06:11:57.482Z,15.13
2017-09-26T06:12:57.478Z,15.16
2017-09-26T06:13:57.450Z,15.25
2017-09-26T06:14:57.436Z,15.16
2017-09-26T06:15:57.411Z,15.21
2017-09-26T06:16:57.394Z,15.21
2017-09-26T06:17:57.058Z,15.29
2017-09-26T06:18:57.040Z,15.27
2017-09-26T06:19:57.139Z,15.22
2017-09-26T06:20:57.005Z,15.28
2017-09-26T06:21:56.993Z,15.25
2017-09-26T06:22:57.287Z,15.16
2017-09-26T06:23:57.266Z,15.21
2017-09-26T06:24:57.247Z,15.28
2017-09-26T06:25:56.958Z,15.25
2017-09-26T06:26:57.217Z,15.35
2017-09-26T06:27:57.443Z,15.43
2017-09-26T06:28:57.218Z,15.47
2017-09-26T06:29:56.849Z,15.44
2017-09-26T06:30:57.156Z,15.43
2017-09-26T06:31:56.949Z,15.32
2017-09-26T06:32:57.156Z,15.31
2017-09-26T06:33:56.558Z,15.35
2017-09-26T06:34:56.782Z,15.43
2017-09-26T06:35:57.129Z,15.44
2017-09-26T06:36:56.728Z,15.4
2017-09-26T06:37:56.709Z,15.28
2017-09-26T06:38:56.688Z,15.28
2017-09-26T06:39:56.681Z,15.35
2017-09-26T06:40:56.650Z,15.34
2017-09-26T06:41:56.333Z,15.39
2017-09-26T06:42:56.302Z,15.31
2017-09-26T06:43:56.290Z,15.28
2017-09-26T06:44:56.578Z,15.25
2017-09-26T06:45:56.559Z,15.2
2017-09-26T06:46:56.550Z,15.22
2017-09-26T06:47:56.540Z,15.17
2017-09-26T06:48:56.551Z,15.22
2017-09-26T06:49:56.809Z,15.24
2017-09-26T06:50:56.809Z,15.27
2017-09-26T06:51:56.469Z,15.21
2017-09-26T06:52:56.429Z,15.1
2017-09-26T06:53:56.118Z,15.17
2017-09-26T06:54:56.475Z,15.25
2017-09-26T06:55:56.704Z,15.17
2017-09-26T06:56:56.698Z,15.25
2017-09-26T06:57:56.039Z,15.21
2017-09-26T06:58:56.019Z,15.22
2017-09-26T06:59:56.617Z,15.32
2017-09-26T07:00:56.607Z,15.34
2017-09-26T07:01:56.598Z,15.34
2017-09-26T07:02:56.267Z,15.27
2017-09-26T07:03:56.553Z,15.27
2017-09-26T07:04:56.226Z,15.29
2017-09-26T07:05:56.539Z,15.34
2017-09-26T07:06:56.191Z,15.32
2017-09-26T07:07:56.483Z,15.34
2017-09-26T07:08:56.469Z,15.34
2017-09-26T07:09:56.138Z,15.46
2017-09-26T07:10:56.122Z,15.35
2017-09-26T07:11:56.411Z,15.32
2017-09-26T07:12:56.399Z,15.29
2017-09-26T07:13:56.480Z,15.21
2017-09-26T07:14:56.371Z,15.17
2017-09-26T07:15:56.461Z,15.21
2017-09-26T07:16:56.319Z,15.13
2017-09-26T07:17:55.979Z,14.95
2017-09-26T07:18:55.968Z,14.95
2017-09-26T07:19:56.280Z,14.85
2017-09-26T07:20:56.258Z,14.85
2017-09-26T07:21:55.919Z,14.96
2017-09-26T07:22:56.207Z,14.94
2017-09-26T07:23:55.878Z,15
2017-09-26T07:24:56.178Z,15.04
2017-09-26T07:25:55.849Z,15.07
2017-09-26T07:26:55.829Z,15.04
2017-09-26T07:27:55.812Z,15.1
2017-09-26T07:28:55.787Z,15.03
2017-09-26T07:29:55.772Z,14.94
2017-09-26T07:30:55.762Z,14.8
2017-09-26T07:31:55.748Z,14.88
2017-09-26T07:32:56.024Z,14.68
2017-09-26T07:33:56.049Z,14.73
2017-09-26T07:34:55.370Z,14.79
2017-09-26T07:35:56.089Z,14.63
2017-09-26T07:36:55.643Z,14.63
2017-09-26T07:37:55.352Z,14.88
2017-09-26T07:38:55.620Z,14.89
2017-09-26T07:39:55.637Z,14.75
2017-09-26T07:40:55.920Z,14.77
2017-09-26T07:41:55.684Z,14.88
2017-09-26T07:42:55.540Z,14.8
2017-09-26T07:43:55.864Z,15
2017-09-26T07:44:55.509Z,15
2017-09-26T07:45:55.559Z,15
2017-09-26T07:46:55.770Z,14.82
2017-09-26T07:47:55.481Z,14.88
2017-09-26T07:48:55.750Z,14.91
2017-09-26T07:49:55.797Z,14.91
2017-09-26T07:50:55.699Z,14.84
2017-09-26T07:51:55.479Z,14.88
2017-09-26T07:52:55.351Z,14.92
2017-09-26T07:53:55.350Z,14.98
2017-09-26T07:54:55.657Z,15.12
2017-09-26T07:55:55.642Z,15.09
2017-09-26T07:56:55.303Z,15.21
2017-09-26T07:57:55.299Z,15.2
2017-09-26T07:58:55.571Z,15.14
2017-09-26T07:59:55.281Z,15.24
2017-09-26T08:00:55.214Z,15.2
2017-09-26T08:01:55.225Z,15.22
2017-09-26T08:02:55.185Z,15.32
2017-09-26T08:03:55.481Z,15.4
2017-09-26T08:04:55.508Z,15.43
2017-09-26T08:05:55.165Z,15.42
2017-09-26T08:06:54.822Z,15.53
2017-09-26T08:07:55.422Z,15.5
2017-09-26T08:08:55.454Z,15.57
2017-09-26T08:09:55.365Z,15.71
2017-09-26T08:10:55.359Z,15.82
2017-09-26T08:11:55.379Z,15.9
2017-09-26T08:12:55.362Z,15.94
2017-09-26T08:13:55.316Z,16.01
2017-09-26T08:14:55.290Z,16.1
2017-09-26T08:15:55.310Z,16.46
2017-09-26T08:16:54.928Z,16.6
2017-09-26T08:17:55.350Z,16.69
2017-09-26T08:18:55.209Z,16.83
2017-09-26T08:19:55.202Z,16.72
2017-09-26T08:20:55.211Z,16.74
2017-09-26T08:21:55.162Z,16.69
2017-09-26T08:22:55.156Z,16.57
2017-09-26T08:23:55.138Z,16.57
2017-09-26T08:24:55.121Z,16.54
2017-09-26T08:25:55.120Z,16.46
2017-09-26T08:26:55.102Z,16.43
2017-09-26T08:27:55.084Z,16.31
2017-09-26T08:28:55.053Z,16.26
2017-09-26T08:29:54.718Z,16.28
2017-09-26T08:30:55.014Z,16.41
2017-09-26T08:31:54.700Z,16.32
2017-09-26T08:32:54.689Z,16.23
2017-09-26T08:33:54.963Z,16.24
2017-09-26T08:34:55.181Z,16.17
2017-09-26T08:35:54.928Z,16.24
2017-09-26T08:36:54.609Z,16.34
2017-09-26T08:37:54.909Z,16.43
2017-09-26T08:38:54.890Z,16.57
2017-09-26T08:39:54.853Z,16.58
2017-09-26T08:40:54.548Z,16.45
2017-09-26T08:41:54.839Z,16.57
2017-09-26T08:42:54.509Z,16.61
2017-09-26T08:43:54.491Z,16.63
2017-09-26T08:44:54.775Z,16.63
2017-09-26T08:45:54.762Z,16.61
2017-09-26T08:46:54.750Z,16.51
2017-09-26T08:47:54.740Z,16.46
2017-09-26T08:48:54.713Z,16.63
2017-09-26T08:49:54.709Z,16.69
2017-09-26T08:50:54.381Z,16.81
2017-09-26T08:51:54.701Z,16.98
2017-09-26T08:52:54.657Z,16.98
2017-09-26T08:53:54.661Z,16.85
2017-09-26T08:54:54.629Z,16.81
2017-09-26T08:55:53.986Z,16.91
2017-09-26T08:56:53.967Z,17.03
2017-09-26T08:57:54.284Z,17.12
2017-09-26T08:58:54.573Z,17.19
2017-09-26T08:59:53.917Z,17.3
2017-09-26T09:00:54.211Z,17.31
2017-09-26T09:01:54.199Z,17.22
2017-09-26T09:02:54.502Z,17.31
2017-09-26T09:03:54.181Z,17.45
2017-09-26T09:04:54.461Z,17.46
2017-09-26T09:05:53.882Z,17.56
2017-09-26T09:06:53.810Z,17.64
2017-09-26T09:07:54.107Z,18
2017-09-26T09:08:54.150Z,18.14
2017-09-26T09:09:53.759Z,18.41
2017-09-26T09:10:54.369Z,18.52
2017-09-26T09:11:54.360Z,18.65
2017-09-26T09:12:54.033Z,18.47
2017-09-26T09:13:54.339Z,18.33
2017-09-26T09:14:54.309Z,18.33
2017-09-26T09:15:53.995Z,18.42
2017-09-26T09:16:53.983Z,18.47
2017-09-26T09:17:54.277Z,18.42
2017-09-26T09:18:53.950Z,18.26
2017-09-26T09:19:53.951Z,18.23
2017-09-26T09:20:54.230Z,18.35
2017-09-26T09:21:54.214Z,18.33
2017-09-26T09:22:54.212Z,18.35
2017-09-26T09:23:54.190Z,18.35
2017-09-26T09:24:54.198Z,18.22
2017-09-26T09:25:54.163Z,18.2
2017-09-26T09:26:53.842Z,18.14
2017-09-26T09:27:54.131Z,18.04
2017-09-26T09:28:53.800Z,17.92
2017-09-26T09:29:54.103Z,17.82
2017-09-26T09:30:54.152Z,17.82
2017-09-26T09:31:54.079Z,17.67
2017-09-26T09:32:53.752Z,17.64
2017-09-26T09:33:54.040Z,17.6
2017-09-26T09:34:54.051Z,17.68
2017-09-26T09:35:53.712Z,17.85
2017-09-26T09:36:54.013Z,17.98
2017-09-26T09:37:53.698Z,17.86
2017-09-26T09:38:53.989Z,17.75
2017-09-26T09:39:53.652Z,17.98
2017-09-26T09:40:53.658Z,17.96
2017-09-26T09:41:53.930Z,18.02
2017-09-26T09:42:54.010Z,18.25
2017-09-26T09:43:53.902Z,18.35
2017-09-26T09:44:53.658Z,18.42
2017-09-26T09:45:53.561Z,18.45
2017-09-26T09:46:53.861Z,18.62
2017-09-26T09:47:53.860Z,18.73
2017-09-26T09:48:53.832Z,18.75
2017-09-26T09:49:53.823Z,18.73
2017-09-26T09:50:53.793Z,18.63
2017-09-26T09:51:53.480Z,18.66
2017-09-26T09:52:53.478Z,18.7
2017-09-26T09:53:53.449Z,18.73
2017-09-26T09:54:53.444Z,18.77
2017-09-26T09:55:53.751Z,18.73
2017-09-26T09:56:53.103Z,18.85
2017-09-26T09:57:53.759Z,19.14
2017-09-26T09:58:53.771Z,19.56
2017-09-26T09:59:53.360Z,20.2
2017-09-26T10:00:53.093Z,20.69
2017-09-26T10:01:53.685Z,20.94
2017-09-26T10:02:53.638Z,20.88
2017-09-26T10:03:53.678Z,21.26
2017-09-26T10:04:53.614Z,21.4
2017-09-26T10:05:53.636Z,21.58
2017-09-26T10:06:53.581Z,21.92
2017-09-26T10:07:53.582Z,22.08
2017-09-26T10:08:53.560Z,22.5
2017-09-26T10:09:53.576Z,22.92
2017-09-26T10:10:53.601Z,23.13
2017-09-26T10:11:53.227Z,23.38
2017-09-26T10:12:53.528Z,23.45
2017-09-26T10:13:53.196Z,23.72
2017-09-26T10:14:53.192Z,23.7
2017-09-26T10:15:53.560Z,23.96
2017-09-26T10:16:53.480Z,24.27
2017-09-26T10:17:53.160Z,24.32
2017-09-26T10:18:52.853Z,24.4
2017-09-26T10:19:53.140Z,24.75
2017-09-26T10:20:53.418Z,24.84
2017-09-26T10:21:53.143Z,25.03
2017-09-26T10:22:53.112Z,25.19
2017-09-26T10:23:53.421Z,25.26
2017-09-26T10:24:53.393Z,25.39
2017-09-26T10:25:53.097Z,25.54
2017-09-26T10:26:53.392Z,25.69
2017-09-26T10:27:53.061Z,25.67
2017-09-26T10:28:53.150Z,25.29
2017-09-26T10:29:52.762Z,24.44
2017-09-26T10:30:52.765Z,24.51
2017-09-26T10:31:53.382Z,24.39
2017-09-26T10:32:53.341Z,24.57
2017-09-26T10:33:53.032Z,24.75
2017-09-26T10:34:53.012Z,25.07
2017-09-26T10:35:52.997Z,25.12
2017-09-26T10:36:52.991Z,25.3
2017-09-26T10:37:52.992Z,25.45
2017-09-26T10:38:53.423Z,25.73
2017-09-26T10:39:52.990Z,25.86
2017-09-26T10:40:53.018Z,25.58
2017-09-26T10:41:52.952Z,25.56
2017-09-26T10:42:52.967Z,25.3
2017-09-26T10:43:53.263Z,25.07
2017-09-26T10:44:52.944Z,24.99
2017-09-26T10:45:53.243Z,24.66
2017-09-26T10:46:53.225Z,24.59
2017-09-26T10:47:53.227Z,24.25
2017-09-26T10:48:52.912Z,23.8
2017-09-26T10:49:53.295Z,23.66
2017-09-26T10:50:52.872Z,23.32
2017-09-26T10:51:52.865Z,23.07
2017-09-26T10:52:52.913Z,23.12
2017-09-26T10:53:53.232Z,23.27
2017-09-26T10:54:52.873Z,23.65
2017-09-26T10:55:53.261Z,23.69
2017-09-26T10:56:53.166Z,24.15
2017-09-26T10:57:53.152Z,24.22
2017-09-26T10:58:52.823Z,23.87
2017-09-26T10:59:52.800Z,23.73
2017-09-26T11:00:53.104Z,23.72
2017-09-26T11:01:52.777Z,23.85
2017-09-26T11:02:52.784Z,23.7
2017-09-26T11:03:53.063Z,23.6
2017-09-26T11:04:52.755Z,23.65
2017-09-26T11:05:52.786Z,23.44
2017-09-26T11:06:53.081Z,23.04
2017-09-26T11:07:53.059Z,22.95
2017-09-26T11:08:53.011Z,23.09
2017-09-26T11:09:52.711Z,23.25
2017-09-26T11:10:52.994Z,23.13
2017-09-26T11:11:52.982Z,22.97
2017-09-26T11:12:52.975Z,22.67
2017-09-26T11:13:52.963Z,22.52
2017-09-26T11:14:52.974Z,22.36
2017-09-26T11:15:52.949Z,22.12
2017-09-26T11:16:52.942Z,21.97
2017-09-26T11:17:52.929Z,22.05
2017-09-26T11:18:52.934Z,22.11
2017-09-26T11:19:52.924Z,22.36
2017-09-26T11:20:52.588Z,22.84
2017-09-26T11:21:52.896Z,23.03
2017-09-26T11:22:52.876Z,23.09
2017-09-26T11:23:52.882Z,23.22
2017-09-26T11:24:52.834Z,23.36
2017-09-26T11:25:52.842Z,23.63
2017-09-26T11:26:52.828Z,23.92
2017-09-26T11:27:52.822Z,24.06
2017-09-26T11:28:52.807Z,24.07
2017-09-26T11:29:52.812Z,23.84
2017-09-26T11:30:52.832Z,23.92
2017-09-26T11:31:52.153Z,24.14
2017-09-26T11:32:52.774Z,24.36
2017-09-26T11:33:52.754Z,24.39
2017-09-26T11:34:52.759Z,24.71
2017-09-26T11:35:52.733Z,24.77
2017-09-26T11:36:52.744Z,24.75
2017-09-26T11:37:52.400Z,24.58
2017-09-26T11:38:52.403Z,24.39
2017-09-26T11:39:52.374Z,24.46
2017-09-26T11:40:52.711Z,24.59
2017-09-26T11:41:52.678Z,24.62
2017-09-26T11:42:52.670Z,24.4
2017-09-26T11:43:52.348Z,24.46
2017-09-26T11:44:52.659Z,24.71
2017-09-26T11:45:52.631Z,24.7
2017-09-26T11:46:52.636Z,24.81
2017-09-26T11:47:52.613Z,25.02
2017-09-26T11:48:52.314Z,25.29
2017-09-26T11:49:52.279Z,25.34
2017-09-26T11:50:52.264Z,25.27
2017-09-26T11:51:52.263Z,24.95
2017-09-26T11:52:52.562Z,24.57
2017-09-26T11:53:52.241Z,24.29
2017-09-26T11:54:52.211Z,24.37
2017-09-26T11:55:52.535Z,24.37
2017-09-26T11:56:52.261Z,24.17
2017-09-26T11:57:52.198Z,23.75
2017-09-26T11:58:52.492Z,23.35
2017-09-26T11:59:52.483Z,23.12
2017-09-26T12:00:52.163Z,22.69
2017-09-26T12:01:52.162Z,22.5
2017-09-26T12:02:52.152Z,22.54
2017-09-26T12:03:52.442Z,22.57
2017-09-26T12:04:52.437Z,22.57
2017-09-26T12:05:52.106Z,22.58
2017-09-26T12:06:52.401Z,22.7
2017-09-26T12:07:52.420Z,22.69
2017-09-26T12:08:52.384Z,22.74
2017-09-26T12:09:52.066Z,22.74
2017-09-26T12:10:52.362Z,22.8
2017-09-26T12:11:52.362Z,22.99
2017-09-26T12:12:52.362Z,23.25
2017-09-26T12:13:52.331Z,23.28
2017-09-26T12:14:52.311Z,23.03
2017-09-26T12:15:52.300Z,22.76
2017-09-26T12:16:52.292Z,22.58
2017-09-26T12:17:52.292Z,22.61
2017-09-26T12:18:52.263Z,22.65
2017-09-26T12:19:52.273Z,22.66
2017-09-26T12:20:52.249Z,22.79
2017-09-26T12:21:52.230Z,22.82
2017-09-26T12:22:52.218Z,22.95
2017-09-26T12:23:51.630Z,22.91
2017-09-26T12:24:51.892Z,22.95
2017-09-26T12:25:51.901Z,22.98
2017-09-26T12:26:52.183Z,22.82
2017-09-26T12:27:52.170Z,22.84
2017-09-26T12:28:52.163Z,22.91
2017-09-26T12:29:51.842Z,22.95
2017-09-26T12:30:51.830Z,22.91
2017-09-26T12:31:52.227Z,22.85
2017-09-26T12:32:51.786Z,22.65
2017-09-26T12:33:52.090Z,22.72
2017-09-26T12:34:52.132Z,22.79
2017-09-26T12:35:51.770Z,22.84
2017-09-26T12:36:51.752Z,22.91
2017-09-26T12:37:51.740Z,22.99
2017-09-26T12:38:52.050Z,22.77
2017-09-26T12:39:52.097Z,22.72
2017-09-26T12:40:51.738Z,22.67
2017-09-26T12:41:51.777Z,22.59
2017-09-26T12:42:52.002Z,22.61
2017-09-26T12:43:51.412Z,22.58
2017-09-26T12:44:51.982Z,22.73
2017-09-26T12:45:51.659Z,22.79
2017-09-26T12:46:51.991Z,22.73
2017-09-26T12:47:51.990Z,22.65
2017-09-26T12:48:51.960Z,22.67
2017-09-26T12:49:51.632Z,22.61
2017-09-26T12:50:51.980Z,22.51
2017-09-26T12:51:51.948Z,22.4
2017-09-26T12:52:51.929Z,22.29
2017-09-26T12:53:51.850Z,22.11
2017-09-26T12:54:51.862Z,22.08